sensor_id;sensor_type;location;lat;lon;timestamp;pressure;altitude;pressure_sealevel;temperature
41940;BMP180;23057;48.554;14.454;2023-06-14T00:00:23;93456.00;;;16.50
41940;BMP180;23057;48.554;14.454;2023-06-14T00:02:53;93462.00;;;16.40
41940;BMP180;23057;48.554;14.454;2023-06-14T00:05:26;93459.00;;;16.20
41940;BMP180;23057;48.554;14.454;2023-06-14T00:07:57;93454.00;;;16.20
41940;BMP180;23057;48.554;14.454;2023-06-14T00:10:30;93460.00;;;16.10
41940;BMP180;23057;48.554;14.454;2023-06-14T00:13:02;93458.00;;;16.10
41940;BMP180;23057;48.554;14.454;2023-06-14T00:15:34;93464.00;;;16.10
41940;BMP180;23057;48.554;14.454;2023-06-14T00:18:05;93454.00;;;16.10
41940;BMP180;23057;48.554;14.454;2023-06-14T00:20:36;93463.00;;;16.10
41940;BMP180;23057;48.554;14.454;2023-06-14T00:23:07;93459.00;;;16.10
41940;BMP180;23057;48.554;14.454;2023-06-14T00:25:38;93451.00;;;16.10
41940;BMP180;23057;48.554;14.454;2023-06-14T00:28:08;93446.00;;;16.10
41940;BMP180;23057;48.554;14.454;2023-06-14T00:30:39;93445.00;;;16.10
41940;BMP180;23057;48.554;14.454;2023-06-14T00:33:10;93447.00;;;16.00
41940;BMP180;23057;48.554;14.454;2023-06-14T00:35:40;93441.00;;;15.90
41940;BMP180;23057;48.554;14.454;2023-06-14T00:38:11;93443.00;;;15.80
41940;BMP180;23057;48.554;14.454;2023-06-14T00:40:42;93447.00;;;15.70
41940;BMP180;23057;48.554;14.454;2023-06-14T00:43:13;93447.00;;;15.60
41940;BMP180;23057;48.554;14.454;2023-06-14T00:45:43;93444.00;;;15.50
41940;BMP180;23057;48.554;14.454;2023-06-14T00:48:14;93444.00;;;15.50
41940;BMP180;23057;48.554;14.454;2023-06-14T00:50:46;93448.00;;;15.40
41940;BMP180;23057;48.554;14.454;2023-06-14T00:53:19;93445.00;;;15.30
41940;BMP180;23057;48.554;14.454;2023-06-14T00:55:50;93447.00;;;15.30
41940;BMP180;23057;48.554;14.454;2023-06-14T00:58:22;93446.00;;;15.30
41940;BMP180;23057;48.554;14.454;2023-06-14T01:00:53;93439.00;;;15.20
41940;BMP180;23057;48.554;14.454;2023-06-14T01:03:24;93437.00;;;15.10
41940;BMP180;23057;48.554;14.454;2023-06-14T01:09:27;93444.00;;;14.90
41940;BMP180;23057;48.554;14.454;2023-06-14T01:14:47;93440.00;;;14.90
41940;BMP180;23057;48.554;14.454;2023-06-14T01:17:19;93446.00;;;15.00
41940;BMP180;23057;48.554;14.454;2023-06-14T01:19:51;93441.00;;;15.10
41940;BMP180;23057;48.554;14.454;2023-06-14T01:22:28;93445.00;;;15.10
41940;BMP180;23057;48.554;14.454;2023-06-14T01:24:59;93441.00;;;15.20
41940;BMP180;23057;48.554;14.454;2023-06-14T01:27:30;93437.00;;;15.30
41940;BMP180;23057;48.554;14.454;2023-06-14T01:30:03;93439.00;;;15.30
41940;BMP180;23057;48.554;14.454;2023-06-14T01:32:36;93433.00;;;15.30
41940;BMP180;23057;48.554;14.454;2023-06-14T01:35:07;93438.00;;;15.40
41940;BMP180;23057;48.554;14.454;2023-06-14T01:37:40;93433.00;;;15.40
41940;BMP180;23057;48.554;14.454;2023-06-14T01:40:12;93440.00;;;15.40
41940;BMP180;23057;48.554;14.454;2023-06-14T01:42:47;93429.00;;;15.40
41940;BMP180;23057;48.554;14.454;2023-06-14T01:45:21;93442.00;;;15.40
41940;BMP180;23057;48.554;14.454;2023-06-14T01:47:52;93438.00;;;15.40
41940;BMP180;23057;48.554;14.454;2023-06-14T01:50:23;93439.00;;;15.30
41940;BMP180;23057;48.554;14.454;2023-06-14T01:52:58;93439.00;;;15.20
41940;BMP180;23057;48.554;14.454;2023-06-14T01:55:29;93440.00;;;15.10
41940;BMP180;23057;48.554;14.454;2023-06-14T01:58:00;93441.00;;;15.10
41940;BMP180;23057;48.554;14.454;2023-06-14T02:00:30;93442.00;;;15.10
41940;BMP180;23057;48.554;14.454;2023-06-14T02:03:01;93441.00;;;15.00
41940;BMP180;23057;48.554;14.454;2023-06-14T02:05:34;93436.00;;;14.90
41940;BMP180;23057;48.554;14.454;2023-06-14T02:08:06;93430.00;;;14.90
41940;BMP180;23057;48.554;14.454;2023-06-14T02:10:37;93424.00;;;14.90
41940;BMP180;23057;48.554;14.454;2023-06-14T02:13:08;93436.00;;;14.90
41940;BMP180;23057;48.554;14.454;2023-06-14T02:15:38;93434.00;;;15.00
41940;BMP180;23057;48.554;14.454;2023-06-14T02:18:09;93433.00;;;15.00
41940;BMP180;23057;48.554;14.454;2023-06-14T02:20:40;93423.00;;;15.00
41940;BMP180;23057;48.554;14.454;2023-06-14T02:23:11;93441.00;;;15.00
41940;BMP180;23057;48.554;14.454;2023-06-14T02:25:42;93435.00;;;14.90
41940;BMP180;23057;48.554;14.454;2023-06-14T02:28:15;93438.00;;;14.90
41940;BMP180;23057;48.554;14.454;2023-06-14T02:30:45;93433.00;;;14.90
41940;BMP180;23057;48.554;14.454;2023-06-14T02:33:16;93439.00;;;14.80
41940;BMP180;23057;48.554;14.454;2023-06-14T02:35:48;93441.00;;;14.80
41940;BMP180;23057;48.554;14.454;2023-06-14T02:38:18;93446.00;;;14.80
41940;BMP180;23057;48.554;14.454;2023-06-14T02:40:49;93445.00;;;14.70
41940;BMP180;23057;48.554;14.454;2023-06-14T02:43:20;93447.00;;;14.70
41940;BMP180;23057;48.554;14.454;2023-06-14T02:45:50;93445.00;;;14.70
41940;BMP180;23057;48.554;14.454;2023-06-14T02:48:22;93447.00;;;14.70
41940;BMP180;23057;48.554;14.454;2023-06-14T02:50:53;93446.00;;;14.70
41940;BMP180;23057;48.554;14.454;2023-06-14T02:53:23;93444.00;;;14.70
41940;BMP180;23057;48.554;14.454;2023-06-14T02:55:54;93445.00;;;14.70
41940;BMP180;23057;48.554;14.454;2023-06-14T02:58:25;93446.00;;;14.70
41940;BMP180;23057;48.554;14.454;2023-06-14T03:00:56;93434.00;;;14.70
41940;BMP180;23057;48.554;14.454;2023-06-14T03:03:27;93433.00;;;14.70
41940;BMP180;23057;48.554;14.454;2023-06-14T03:05:58;93431.00;;;14.70
41940;BMP180;23057;48.554;14.454;2023-06-14T03:08:35;93435.00;;;14.70
41940;BMP180;23057;48.554;14.454;2023-06-14T03:11:09;93438.00;;;14.70
41940;BMP180;23057;48.554;14.454;2023-06-14T03:13:39;93429.00;;;14.70
41940;BMP180;23057;48.554;14.454;2023-06-14T03:16:11;93431.00;;;14.70
41940;BMP180;23057;48.554;14.454;2023-06-14T03:18:41;93435.00;;;14.70
41940;BMP180;23057;48.554;14.454;2023-06-14T03:21:12;93426.00;;;14.70
41940;BMP180;23057;48.554;14.454;2023-06-14T03:23:44;93430.00;;;14.60
41940;BMP180;23057;48.554;14.454;2023-06-14T03:26:15;93429.00;;;14.60
41940;BMP180;23057;48.554;14.454;2023-06-14T03:28:48;93426.00;;;14.60
41940;BMP180;23057;48.554;14.454;2023-06-14T03:31:20;93421.00;;;14.70
41940;BMP180;23057;48.554;14.454;2023-06-14T03:33:51;93435.00;;;14.70
41940;BMP180;23057;48.554;14.454;2023-06-14T03:36:22;93434.00;;;14.80
41940;BMP180;23057;48.554;14.454;2023-06-14T03:38:53;93434.00;;;14.80
41940;BMP180;23057;48.554;14.454;2023-06-14T03:41:27;93440.00;;;14.80
41940;BMP180;23057;48.554;14.454;2023-06-14T03:43:58;93446.00;;;15.00
41940;BMP180;23057;48.554;14.454;2023-06-14T03:46:29;93445.00;;;15.20
41940;BMP180;23057;48.554;14.454;2023-06-14T03:48:59;93449.00;;;15.50
41940;BMP180;23057;48.554;14.454;2023-06-14T03:51:30;93453.00;;;15.70
41940;BMP180;23057;48.554;14.454;2023-06-14T03:54:01;93452.00;;;15.90
41940;BMP180;23057;48.554;14.454;2023-06-14T03:56:32;93452.00;;;16.00
41940;BMP180;23057;48.554;14.454;2023-06-14T03:59:03;93463.00;;;16.10
41940;BMP180;23057;48.554;14.454;2023-06-14T04:01:33;93462.00;;;16.20
41940;BMP180;23057;48.554;14.454;2023-06-14T04:04:04;93469.00;;;16.30
41940;BMP180;23057;48.554;14.454;2023-06-14T04:06:35;93468.00;;;16.40
41940;BMP180;23057;48.554;14.454;2023-06-14T04:09:07;93467.00;;;16.40
41940;BMP180;23057;48.554;14.454;2023-06-14T04:11:37;93476.00;;;16.30
41940;BMP180;23057;48.554;14.454;2023-06-14T04:14:08;93480.00;;;16.40
41940;BMP180;23057;48.554;14.454;2023-06-14T04:16:39;93477.00;;;16.60
41940;BMP180;23057;48.554;14.454;2023-06-14T04:19:09;93475.00;;;16.60
41940;BMP180;23057;48.554;14.454;2023-06-14T04:21:40;93472.00;;;16.90
41940;BMP180;23057;48.554;14.454;2023-06-14T04:24:11;93477.00;;;17.10
41940;BMP180;23057;48.554;14.454;2023-06-14T04:26:44;93483.00;;;17.20
41940;BMP180;23057;48.554;14.454;2023-06-14T04:29:15;93485.00;;;17.30
41940;BMP180;23057;48.554;14.454;2023-06-14T04:31:47;93482.00;;;17.40
41940;BMP180;23057;48.554;14.454;2023-06-14T04:34:18;93492.00;;;17.60
41940;BMP180;23057;48.554;14.454;2023-06-14T04:36:49;93489.00;;;17.70
41940;BMP180;23057;48.554;14.454;2023-06-14T04:39:20;93489.00;;;17.80
41940;BMP180;23057;48.554;14.454;2023-06-14T04:41:51;93493.00;;;17.90
41940;BMP180;23057;48.554;14.454;2023-06-14T04:44:23;93500.00;;;18.00
41940;BMP180;23057;48.554;14.454;2023-06-14T04:47:00;93500.00;;;18.10
41940;BMP180;23057;48.554;14.454;2023-06-14T04:49:30;93500.00;;;18.30
41940;BMP180;23057;48.554;14.454;2023-06-14T04:52:03;93494.00;;;18.40
41940;BMP180;23057;48.554;14.454;2023-06-14T04:54:34;93501.00;;;18.60
41940;BMP180;23057;48.554;14.454;2023-06-14T04:57:08;93497.00;;;18.90
41940;BMP180;23057;48.554;14.454;2023-06-14T04:59:44;93497.00;;;19.10
41940;BMP180;23057;48.554;14.454;2023-06-14T05:02:15;93508.00;;;19.40
41940;BMP180;23057;48.554;14.454;2023-06-14T05:04:46;93499.00;;;19.80
41940;BMP180;23057;48.554;14.454;2023-06-14T05:07:18;93507.00;;;20.20
41940;BMP180;23057;48.554;14.454;2023-06-14T05:09:48;93507.00;;;20.40
41940;BMP180;23057;48.554;14.454;2023-06-14T05:12:19;93502.00;;;20.60
41940;BMP180;23057;48.554;14.454;2023-06-14T05:14:50;93505.00;;;20.80
41940;BMP180;23057;48.554;14.454;2023-06-14T05:17:21;93510.00;;;21.10
41940;BMP180;23057;48.554;14.454;2023-06-14T05:19:52;93502.00;;;21.30
41940;BMP180;23057;48.554;14.454;2023-06-14T05:22:23;93500.00;;;21.50
41940;BMP180;23057;48.554;14.454;2023-06-14T05:24:54;93503.00;;;21.80
41940;BMP180;23057;48.554;14.454;2023-06-14T05:27:25;93512.00;;;22.00
41940;BMP180;23057;48.554;14.454;2023-06-14T05:29:56;93515.00;;;22.20
41940;BMP180;23057;48.554;14.454;2023-06-14T05:32:29;93521.00;;;22.40
41940;BMP180;23057;48.554;14.454;2023-06-14T05:35:00;93520.00;;;22.60
41940;BMP180;23057;48.554;14.454;2023-06-14T05:37:31;93528.00;;;22.70
41940;BMP180;23057;48.554;14.454;2023-06-14T05:40:03;93529.00;;;22.80
41940;BMP180;23057;48.554;14.454;2023-06-14T05:42:39;93528.00;;;22.90
41940;BMP180;23057;48.554;14.454;2023-06-14T05:45:10;93528.00;;;22.90
41940;BMP180;23057;48.554;14.454;2023-06-14T05:47:40;93528.00;;;23.00
41940;BMP180;23057;48.554;14.454;2023-06-14T05:50:11;93528.00;;;23.10
41940;BMP180;23057;48.554;14.454;2023-06-14T05:52:42;93530.00;;;23.30
41940;BMP180;23057;48.554;14.454;2023-06-14T05:55:13;93535.00;;;23.40
41940;BMP180;23057;48.554;14.454;2023-06-14T05:57:44;93529.00;;;23.60
41940;BMP180;23057;48.554;14.454;2023-06-14T06:00:15;93535.00;;;23.80
41940;BMP180;23057;48.554;14.454;2023-06-14T06:02:46;93540.00;;;23.90
41940;BMP180;23057;48.554;14.454;2023-06-14T06:05:19;93529.00;;;24.00
41940;BMP180;23057;48.554;14.454;2023-06-14T06:07:50;93533.00;;;24.20
41940;BMP180;23057;48.554;14.454;2023-06-14T06:10:21;93536.00;;;24.30
41940;BMP180;23057;48.554;14.454;2023-06-14T06:12:52;93530.00;;;24.30
41940;BMP180;23057;48.554;14.454;2023-06-14T06:15:24;93532.00;;;24.30
41940;BMP180;23057;48.554;14.454;2023-06-14T06:17:55;93540.00;;;24.40
41940;BMP180;23057;48.554;14.454;2023-06-14T06:20:26;93544.00;;;24.40
41940;BMP180;23057;48.554;14.454;2023-06-14T06:22:58;93539.00;;;24.30
41940;BMP180;23057;48.554;14.454;2023-06-14T06:25:30;93543.00;;;24.30
41940;BMP180;23057;48.554;14.454;2023-06-14T06:28:02;93544.00;;;24.30
41940;BMP180;23057;48.554;14.454;2023-06-14T06:30:32;93543.00;;;24.40
41940;BMP180;23057;48.554;14.454;2023-06-14T06:33:03;93545.00;;;24.50
41940;BMP180;23057;48.554;14.454;2023-06-14T06:35:34;93557.00;;;24.60
41940;BMP180;23057;48.554;14.454;2023-06-14T06:38:05;93549.00;;;24.70
41940;BMP180;23057;48.554;14.454;2023-06-14T06:40:36;93553.00;;;24.80
41940;BMP180;23057;48.554;14.454;2023-06-14T06:43:07;93554.00;;;24.90
41940;BMP180;23057;48.554;14.454;2023-06-14T06:45:37;93554.00;;;25.10
41940;BMP180;23057;48.554;14.454;2023-06-14T06:48:08;93559.00;;;25.20
41940;BMP180;23057;48.554;14.454;2023-06-14T06:50:40;93565.00;;;25.30
41940;BMP180;23057;48.554;14.454;2023-06-14T06:53:11;93557.00;;;25.30
41940;BMP180;23057;48.554;14.454;2023-06-14T06:55:42;93561.00;;;25.40
41940;BMP180;23057;48.554;14.454;2023-06-14T06:58:13;93569.00;;;25.50
41940;BMP180;23057;48.554;14.454;2023-06-14T07:00:44;93570.00;;;25.60
41940;BMP180;23057;48.554;14.454;2023-06-14T07:03:15;93567.00;;;25.60
41940;BMP180;23057;48.554;14.454;2023-06-14T07:05:46;93568.00;;;25.60
41940;BMP180;23057;48.554;14.454;2023-06-14T07:08:16;93570.00;;;25.50
41940;BMP180;23057;48.554;14.454;2023-06-14T07:10:47;93567.00;;;25.50
41940;BMP180;23057;48.554;14.454;2023-06-14T07:13:18;93570.00;;;25.60
41940;BMP180;23057;48.554;14.454;2023-06-14T07:15:49;93588.00;;;25.80
41940;BMP180;23057;48.554;14.454;2023-06-14T07:18:20;93578.00;;;25.90
41940;BMP180;23057;48.554;14.454;2023-06-14T07:20:51;93580.00;;;26.00
41940;BMP180;23057;48.554;14.454;2023-06-14T07:23:23;93585.00;;;26.00
41940;BMP180;23057;48.554;14.454;2023-06-14T07:25:53;93588.00;;;26.00
41940;BMP180;23057;48.554;14.454;2023-06-14T07:28:24;93583.00;;;25.90
41940;BMP180;23057;48.554;14.454;2023-06-14T07:30:55;93580.00;;;25.70
41940;BMP180;23057;48.554;14.454;2023-06-14T07:33:26;93592.00;;;25.60
41940;BMP180;23057;48.554;14.454;2023-06-14T07:35:56;93592.00;;;25.40
41940;BMP180;23057;48.554;14.454;2023-06-14T07:38:27;93595.00;;;25.40
41940;BMP180;23057;48.554;14.454;2023-06-14T07:40:58;93589.00;;;25.50
41940;BMP180;23057;48.554;14.454;2023-06-14T07:43:29;93588.00;;;25.50
41940;BMP180;23057;48.554;14.454;2023-06-14T07:46:00;93584.00;;;25.40
41940;BMP180;23057;48.554;14.454;2023-06-14T07:48:32;93587.00;;;25.30
41940;BMP180;23057;48.554;14.454;2023-06-14T07:51:03;93590.00;;;25.30
41940;BMP180;23057;48.554;14.454;2023-06-14T07:53:34;93592.00;;;25.30
41940;BMP180;23057;48.554;14.454;2023-06-14T07:56:05;93593.00;;;25.30
41940;BMP180;23057;48.554;14.454;2023-06-14T07:58:35;93592.00;;;25.40
41940;BMP180;23057;48.554;14.454;2023-06-14T08:01:06;93596.00;;;25.40
41940;BMP180;23057;48.554;14.454;2023-06-14T08:03:38;93608.00;;;25.40
41940;BMP180;23057;48.554;14.454;2023-06-14T08:06:09;93606.00;;;25.50
41940;BMP180;23057;48.554;14.454;2023-06-14T08:08:40;93603.00;;;25.50
41940;BMP180;23057;48.554;14.454;2023-06-14T08:11:10;93608.00;;;25.60
41940;BMP180;23057;48.554;14.454;2023-06-14T08:13:42;93613.00;;;25.60
41940;BMP180;23057;48.554;14.454;2023-06-14T08:16:14;93613.00;;;25.60
41940;BMP180;23057;48.554;14.454;2023-06-14T08:18:45;93609.00;;;25.60
41940;BMP180;23057;48.554;14.454;2023-06-14T08:21:16;93599.00;;;25.70
41940;BMP180;23057;48.554;14.454;2023-06-14T08:23:46;93616.00;;;25.80
41940;BMP180;23057;48.554;14.454;2023-06-14T08:26:17;93612.00;;;25.80
41940;BMP180;23057;48.554;14.454;2023-06-14T08:28:48;93604.00;;;25.80
41940;BMP180;23057;48.554;14.454;2023-06-14T08:31:19;93601.00;;;25.90
41940;BMP180;23057;48.554;14.454;2023-06-14T08:33:50;93604.00;;;26.10
41940;BMP180;23057;48.554;14.454;2023-06-14T08:36:21;93615.00;;;25.90
41940;BMP180;23057;48.554;14.454;2023-06-14T08:38:53;93611.00;;;25.80
41940;BMP180;23057;48.554;14.454;2023-06-14T08:41:24;93608.00;;;25.80
41940;BMP180;23057;48.554;14.454;2023-06-14T08:43:55;93612.00;;;25.80
41940;BMP180;23057;48.554;14.454;2023-06-14T08:46:27;93615.00;;;25.70
41940;BMP180;23057;48.554;14.454;2023-06-14T08:49:04;93619.00;;;25.60
41940;BMP180;23057;48.554;14.454;2023-06-14T08:51:36;93619.00;;;25.50
41940;BMP180;23057;48.554;14.454;2023-06-14T08:54:08;93619.00;;;25.50
41940;BMP180;23057;48.554;14.454;2023-06-14T08:56:40;93619.00;;;25.60
41940;BMP180;23057;48.554;14.454;2023-06-14T08:59:12;93615.00;;;25.60
41940;BMP180;23057;48.554;14.454;2023-06-14T09:01:44;93613.00;;;25.50
41940;BMP180;23057;48.554;14.454;2023-06-14T09:04:15;93614.00;;;25.30
41940;BMP180;23057;48.554;14.454;2023-06-14T09:06:46;93613.00;;;25.20
41940;BMP180;23057;48.554;14.454;2023-06-14T09:09:17;93609.00;;;25.00
41940;BMP180;23057;48.554;14.454;2023-06-14T09:11:49;93617.00;;;25.00
41940;BMP180;23057;48.554;14.454;2023-06-14T09:14:23;93614.00;;;25.00
41940;BMP180;23057;48.554;14.454;2023-06-14T09:16:55;93619.00;;;24.90
41940;BMP180;23057;48.554;14.454;2023-06-14T09:19:26;93614.00;;;24.80
41940;BMP180;23057;48.554;14.454;2023-06-14T09:21:57;93627.00;;;24.70
41940;BMP180;23057;48.554;14.454;2023-06-14T09:24:27;93621.00;;;24.70
41940;BMP180;23057;48.554;14.454;2023-06-14T09:26:58;93614.00;;;24.70
41940;BMP180;23057;48.554;14.454;2023-06-14T09:29:29;93620.00;;;24.60
41940;BMP180;23057;48.554;14.454;2023-06-14T09:32:01;93630.00;;;24.50
41940;BMP180;23057;48.554;14.454;2023-06-14T09:34:33;93635.00;;;24.40
41940;BMP180;23057;48.554;14.454;2023-06-14T09:37:06;93624.00;;;24.50
41940;BMP180;23057;48.554;14.454;2023-06-14T09:39:49;93621.00;;;24.50
41940;BMP180;23057;48.554;14.454;2023-06-14T09:42:21;93629.00;;;24.60
41940;BMP180;23057;48.554;14.454;2023-06-14T09:44:55;93632.00;;;24.60
41940;BMP180;23057;48.554;14.454;2023-06-14T09:47:27;93624.00;;;24.70
41940;BMP180;23057;48.554;14.454;2023-06-14T09:49:57;93622.00;;;24.70
41940;BMP180;23057;48.554;14.454;2023-06-14T09:52:29;93632.00;;;24.70
41940;BMP180;23057;48.554;14.454;2023-06-14T09:55:08;93633.00;;;24.70
41940;BMP180;23057;48.554;14.454;2023-06-14T09:57:45;93634.00;;;24.80
41940;BMP180;23057;48.554;14.454;2023-06-14T10:00:19;93631.00;;;24.80
41940;BMP180;23057;48.554;14.454;2023-06-14T10:02:54;93630.00;;;24.80
41940;BMP180;23057;48.554;14.454;2023-06-14T10:05:32;93628.00;;;24.90
41940;BMP180;23057;48.554;14.454;2023-06-14T10:08:15;93634.00;;;24.80
41940;BMP180;23057;48.554;14.454;2023-06-14T10:10:49;93631.00;;;24.80
41940;BMP180;23057;48.554;14.454;2023-06-14T10:13:21;93631.00;;;24.80
41940;BMP180;23057;48.554;14.454;2023-06-14T10:15:58;93640.00;;;24.80
41940;BMP180;23057;48.554;14.454;2023-06-14T10:19:00;93632.00;;;24.90
41940;BMP180;23057;48.554;14.454;2023-06-14T10:22:02;93631.00;;;24.90
41940;BMP180;23057;48.554;14.454;2023-06-14T10:24:44;93637.00;;;25.00
41940;BMP180;23057;48.554;14.454;2023-06-14T10:27:16;93643.00;;;25.00
41940;BMP180;23057;48.554;14.454;2023-06-14T10:32:28;93640.00;;;24.90
41940;BMP180;23057;48.554;14.454;2023-06-14T10:35:09;93642.00;;;24.80
41940;BMP180;23057;48.554;14.454;2023-06-14T10:37:46;93636.00;;;24.80
41940;BMP180;23057;48.554;14.454;2023-06-14T10:40:30;93630.00;;;24.90
41940;BMP180;23057;48.554;14.454;2023-06-14T10:43:21;93633.00;;;25.20
41940;BMP180;23057;48.554;14.454;2023-06-14T10:46:18;93631.00;;;25.60
41940;BMP180;23057;48.554;14.454;2023-06-14T10:48:57;93639.00;;;25.80
41940;BMP180;23057;48.554;14.454;2023-06-14T10:51:29;93630.00;;;26.00
41940;BMP180;23057;48.554;14.454;2023-06-14T10:54:16;93628.00;;;26.10
41940;BMP180;23057;48.554;14.454;2023-06-14T10:56:51;93632.00;;;26.30
41940;BMP180;23057;48.554;14.454;2023-06-14T10:59:23;93633.00;;;26.40
41940;BMP180;23057;48.554;14.454;2023-06-14T11:04:53;93630.00;;;26.50
41940;BMP180;23057;48.554;14.454;2023-06-14T11:13:01;93627.00;;;27.00
41940;BMP180;23057;48.554;14.454;2023-06-14T11:15:37;93628.00;;;26.80
41940;BMP180;23057;48.554;14.454;2023-06-14T11:18:08;93620.00;;;26.80
41940;BMP180;23057;48.554;14.454;2023-06-14T11:20:40;93619.00;;;26.80
41940;BMP180;23057;48.554;14.454;2023-06-14T11:23:11;93625.00;;;26.70
41940;BMP180;23057;48.554;14.454;2023-06-14T11:25:42;93631.00;;;26.50
41940;BMP180;23057;48.554;14.454;2023-06-14T11:28:12;93633.00;;;26.40
41940;BMP180;23057;48.554;14.454;2023-06-14T11:30:43;93637.00;;;26.30
41940;BMP180;23057;48.554;14.454;2023-06-14T11:33:18;93628.00;;;26.20
41940;BMP180;23057;48.554;14.454;2023-06-14T11:35:49;93628.00;;;26.10
41940;BMP180;23057;48.554;14.454;2023-06-14T11:38:20;93626.00;;;26.00
41940;BMP180;23057;48.554;14.454;2023-06-14T11:40:50;93624.00;;;26.00
41940;BMP180;23057;48.554;14.454;2023-06-14T11:43:21;93615.00;;;26.00
41940;BMP180;23057;48.554;14.454;2023-06-14T11:45:52;93612.00;;;26.10
41940;BMP180;23057;48.554;14.454;2023-06-14T11:48:23;93609.00;;;26.40
41940;BMP180;23057;48.554;14.454;2023-06-14T11:50:54;93604.00;;;26.50
41940;BMP180;23057;48.554;14.454;2023-06-14T11:53:25;93601.00;;;26.60
41940;BMP180;23057;48.554;14.454;2023-06-14T11:55:56;93606.00;;;26.60
41940;BMP180;23057;48.554;14.454;2023-06-14T11:58:29;93615.00;;;26.50
41940;BMP180;23057;48.554;14.454;2023-06-14T12:01:00;93611.00;;;26.30
41940;BMP180;23057;48.554;14.454;2023-06-14T12:03:33;93605.00;;;26.20
41940;BMP180;23057;48.554;14.454;2023-06-14T12:06:05;93600.00;;;26.10
41940;BMP180;23057;48.554;14.454;2023-06-14T12:08:40;93605.00;;;26.00
41940;BMP180;23057;48.554;14.454;2023-06-14T12:11:13;93596.00;;;26.00
41940;BMP180;23057;48.554;14.454;2023-06-14T12:13:45;93603.00;;;26.20
41940;BMP180;23057;48.554;14.454;2023-06-14T12:16:16;93598.00;;;26.40
41940;BMP180;23057;48.554;14.454;2023-06-14T12:18:46;93610.00;;;26.40
41940;BMP180;23057;48.554;14.454;2023-06-14T12:21:22;93609.00;;;26.30
41940;BMP180;23057;48.554;14.454;2023-06-14T12:23:53;93608.00;;;26.30
41940;BMP180;23057;48.554;14.454;2023-06-14T12:26:24;93602.00;;;26.40
41940;BMP180;23057;48.554;14.454;2023-06-14T12:28:57;93617.00;;;26.40
41940;BMP180;23057;48.554;14.454;2023-06-14T12:31:28;93615.00;;;26.40
41940;BMP180;23057;48.554;14.454;2023-06-14T12:34:00;93616.00;;;26.60
41940;BMP180;23057;48.554;14.454;2023-06-14T12:36:31;93611.00;;;26.70
41940;BMP180;23057;48.554;14.454;2023-06-14T12:39:02;93607.00;;;26.80
41940;BMP180;23057;48.554;14.454;2023-06-14T12:41:33;93605.00;;;26.80
41940;BMP180;23057;48.554;14.454;2023-06-14T12:44:04;93605.00;;;26.80
41940;BMP180;23057;48.554;14.454;2023-06-14T12:46:35;93609.00;;;26.80
41940;BMP180;23057;48.554;14.454;2023-06-14T12:49:07;93602.00;;;27.00
41940;BMP180;23057;48.554;14.454;2023-06-14T12:51:39;93604.00;;;27.00
41940;BMP180;23057;48.554;14.454;2023-06-14T12:54:10;93609.00;;;27.00
41940;BMP180;23057;48.554;14.454;2023-06-14T12:56:42;93607.00;;;27.10
41940;BMP180;23057;48.554;14.454;2023-06-14T12:59:15;93610.00;;;27.30
41940;BMP180;23057;48.554;14.454;2023-06-14T13:01:45;93616.00;;;27.40
41940;BMP180;23057;48.554;14.454;2023-06-14T13:04:20;93613.00;;;27.60
41940;BMP180;23057;48.554;14.454;2023-06-14T13:06:50;93609.00;;;27.70
41940;BMP180;23057;48.554;14.454;2023-06-14T13:09:21;93612.00;;;27.70
41940;BMP180;23057;48.554;14.454;2023-06-14T13:11:52;93604.00;;;27.90
41940;BMP180;23057;48.554;14.454;2023-06-14T13:14:22;93608.00;;;28.00
41940;BMP180;23057;48.554;14.454;2023-06-14T13:16:53;93613.00;;;27.90
41940;BMP180;23057;48.554;14.454;2023-06-14T13:19:24;93613.00;;;27.80
41940;BMP180;23057;48.554;14.454;2023-06-14T13:21:55;93609.00;;;27.70
41940;BMP180;23057;48.554;14.454;2023-06-14T13:24:26;93614.00;;;27.70
41940;BMP180;23057;48.554;14.454;2023-06-14T13:26:57;93600.00;;;27.70
41940;BMP180;23057;48.554;14.454;2023-06-14T13:29:28;93604.00;;;27.60
41940;BMP180;23057;48.554;14.454;2023-06-14T13:31:59;93612.00;;;27.50
41940;BMP180;23057;48.554;14.454;2023-06-14T13:34:30;93600.00;;;27.60
41940;BMP180;23057;48.554;14.454;2023-06-14T13:37:01;93613.00;;;27.60
41940;BMP180;23057;48.554;14.454;2023-06-14T13:39:31;93609.00;;;27.60
41940;BMP180;23057;48.554;14.454;2023-06-14T13:42:03;93609.00;;;27.50
41940;BMP180;23057;48.554;14.454;2023-06-14T13:44:34;93611.00;;;27.40
41940;BMP180;23057;48.554;14.454;2023-06-14T13:47:05;93606.00;;;27.30
41940;BMP180;23057;48.554;14.454;2023-06-14T13:49:36;93604.00;;;27.30
41940;BMP180;23057;48.554;14.454;2023-06-14T13:52:07;93611.00;;;27.20
41940;BMP180;23057;48.554;14.454;2023-06-14T13:54:38;93598.00;;;27.30
41940;BMP180;23057;48.554;14.454;2023-06-14T13:57:08;93595.00;;;27.30
41940;BMP180;23057;48.554;14.454;2023-06-14T13:59:43;93597.00;;;27.30
41940;BMP180;23057;48.554;14.454;2023-06-14T14:02:15;93599.00;;;27.20
41940;BMP180;23057;48.554;14.454;2023-06-14T14:04:46;93591.00;;;27.20
41940;BMP180;23057;48.554;14.454;2023-06-14T14:07:23;93589.00;;;27.20
41940;BMP180;23057;48.554;14.454;2023-06-14T14:09:54;93601.00;;;27.20
41940;BMP180;23057;48.554;14.454;2023-06-14T14:12:25;93598.00;;;27.10
41940;BMP180;23057;48.554;14.454;2023-06-14T14:14:55;93597.00;;;27.20
41940;BMP180;23057;48.554;14.454;2023-06-14T14:17:26;93601.00;;;27.10
41940;BMP180;23057;48.554;14.454;2023-06-14T14:19:57;93594.00;;;27.00
41940;BMP180;23057;48.554;14.454;2023-06-14T14:22:27;93598.00;;;26.90
41940;BMP180;23057;48.554;14.454;2023-06-14T14:24:58;93605.00;;;26.80
41940;BMP180;23057;48.554;14.454;2023-06-14T14:27:29;93606.00;;;26.80
41940;BMP180;23057;48.554;14.454;2023-06-14T14:30:00;93601.00;;;26.90
41940;BMP180;23057;48.554;14.454;2023-06-14T14:32:30;93610.00;;;26.90
41940;BMP180;23057;48.554;14.454;2023-06-14T14:35:01;93614.00;;;26.90
41940;BMP180;23057;48.554;14.454;2023-06-14T14:37:32;93603.00;;;26.90
41940;BMP180;23057;48.554;14.454;2023-06-14T14:40:03;93609.00;;;27.00